Terminal Aerodrome Forecast
Issued by NWS

Current Version | Previous Version | Text Only | Print | Product List | Glossary On
Versions: 1 2 3 4 5 6 7 8 9 10 11 12 13 14 15 16 17 18 19 20 21 22 23 24 25
000
FTPQ31 PGUM 271720
TAFGUM
TAF

TAF
PTKK 271720Z 2718/2818 04011G20KT P6SM VCSH FEW016 SCT050 BKN140
      TEMPO 2718/2721 5SM SHRA SCT012 BKN025
     FM280200 01015G25KT 6SM -RA VCTS SCT014CB BKN040 OVC100
      TEMPO 2802/2806 3SM +SHRA BKN012 OVC025=

USA.gov is the U.S. government's official web portal to all federal, state and local government web resources and services.